sensor_id;sensor_type;location;lat;lon;timestamp;P1;durP1;ratioP1;P2;durP2;ratioP2
9524;SDS011;15940;48.734;9.112;2024-03-08T00:01:00;26.43;;;16.67;;
9524;SDS011;15940;48.734;9.112;2024-03-08T00:03:26;29.10;;;17.10;;
9524;SDS011;15940;48.734;9.112;2024-03-08T00:05:54;28.83;;;16.33;;
9524;SDS011;15940;48.734;9.112;2024-03-08T00:08:22;26.23;;;15.80;;
9524;SDS011;15940;48.734;9.112;2024-03-08T00:10:50;24.50;;;15.93;;
9524;SDS011;15940;48.734;9.112;2024-03-08T00:13:17;27.13;;;15.80;;
9524;SDS011;15940;48.734;9.112;2024-03-08T00:15:44;25.33;;;15.73;;
9524;SDS011;15940;48.734;9.112;2024-03-08T00:18:11;25.77;;;16.20;;
9524;SDS011;15940;48.734;9.112;2024-03-08T00:20:38;24.33;;;15.73;;
9524;SDS011;15940;48.734;9.112;2024-03-08T00:23:04;29.20;;;16.07;;
9524;SDS011;15940;48.734;9.112;2024-03-08T00:25:31;22.90;;;15.40;;
9524;SDS011;15940;48.734;9.112;2024-03-08T00:28:00;26.40;;;15.97;;
9524;SDS011;15940;48.734;9.112;2024-03-08T00:30:27;28.03;;;15.17;;
9524;SDS011;15940;48.734;9.112;2024-03-08T00:32:54;22.90;;;14.80;;
9524;SDS011;15940;48.734;9.112;2024-03-08T00:35:21;23.67;;;15.27;;
9524;SDS011;15940;48.734;9.112;2024-03-08T00:37:48;22.93;;;15.20;;
9524;SDS011;15940;48.734;9.112;2024-03-08T00:40:15;26.27;;;16.27;;
9524;SDS011;15940;48.734;9.112;2024-03-08T00:42:42;22.13;;;14.80;;
9524;SDS011;15940;48.734;9.112;2024-03-08T00:45:11;22.47;;;15.37;;
9524;SDS011;15940;48.734;9.112;2024-03-08T00:47:38;21.53;;;14.37;;
9524;SDS011;15940;48.734;9.112;2024-03-08T00:50:07;22.43;;;14.67;;
9524;SDS011;15940;48.734;9.112;2024-03-08T00:52:34;23.03;;;15.63;;
9524;SDS011;15940;48.734;9.112;2024-03-08T00:55:02;25.03;;;15.83;;
9524;SDS011;15940;48.734;9.112;2024-03-08T00:57:29;25.13;;;15.40;;
9524;SDS011;15940;48.734;9.112;2024-03-08T00:59:56;24.43;;;15.63;;
9524;SDS011;15940;48.734;9.112;2024-03-08T01:02:24;22.23;;;14.67;;
9524;SDS011;15940;48.734;9.112;2024-03-08T01:04:51;24.77;;;15.77;;
9524;SDS011;15940;48.734;9.112;2024-03-08T01:07:18;23.37;;;15.60;;
9524;SDS011;15940;48.734;9.112;2024-03-08T01:09:45;25.10;;;15.60;;
9524;SDS011;15940;48.734;9.112;2024-03-08T01:12:12;25.90;;;14.90;;
9524;SDS011;15940;48.734;9.112;2024-03-08T01:14:39;25.77;;;15.33;;
9524;SDS011;15940;48.734;9.112;2024-03-08T01:17:06;23.53;;;14.73;;
9524;SDS011;15940;48.734;9.112;2024-03-08T01:19:35;24.87;;;15.40;;
9524;SDS011;15940;48.734;9.112;2024-03-08T01:22:02;22.07;;;14.83;;
9524;SDS011;15940;48.734;9.112;2024-03-08T01:24:29;23.63;;;15.33;;
9524;SDS011;15940;48.734;9.112;2024-03-08T01:26:56;27.87;;;15.80;;
9524;SDS011;15940;48.734;9.112;2024-03-08T01:29:23;25.63;;;15.57;;
9524;SDS011;15940;48.734;9.112;2024-03-08T01:31:50;22.97;;;15.13;;
9524;SDS011;15940;48.734;9.112;2024-03-08T01:34:17;21.53;;;15.27;;
9524;SDS011;15940;48.734;9.112;2024-03-08T01:36:45;25.40;;;16.33;;
9524;SDS011;15940;48.734;9.112;2024-03-08T01:39:12;23.37;;;15.27;;
9524;SDS011;15940;48.734;9.112;2024-03-08T01:41:39;23.93;;;15.23;;
9524;SDS011;15940;48.734;9.112;2024-03-08T01:44:06;24.20;;;15.30;;
9524;SDS011;15940;48.734;9.112;2024-03-08T01:46:34;25.23;;;16.23;;
9524;SDS011;15940;48.734;9.112;2024-03-08T01:49:01;23.97;;;16.13;;
9524;SDS011;15940;48.734;9.112;2024-03-08T01:51:29;24.43;;;15.83;;
9524;SDS011;15940;48.734;9.112;2024-03-08T01:53:58;22.80;;;15.33;;
9524;SDS011;15940;48.734;9.112;2024-03-08T01:56:27;28.23;;;16.03;;
9524;SDS011;15940;48.734;9.112;2024-03-08T01:58:56;26.83;;;15.87;;
9524;SDS011;15940;48.734;9.112;2024-03-08T02:01:24;23.93;;;16.17;;
9524;SDS011;15940;48.734;9.112;2024-03-08T02:03:51;23.83;;;14.97;;
9524;SDS011;15940;48.734;9.112;2024-03-08T02:06:18;23.70;;;14.77;;
9524;SDS011;15940;48.734;9.112;2024-03-08T02:08:45;25.67;;;15.30;;
9524;SDS011;15940;48.734;9.112;2024-03-08T02:11:14;24.87;;;14.97;;
9524;SDS011;15940;48.734;9.112;2024-03-08T02:13:41;21.97;;;14.67;;
9524;SDS011;15940;48.734;9.112;2024-03-08T02:16:08;21.90;;;15.03;;
9524;SDS011;15940;48.734;9.112;2024-03-08T02:18:36;21.73;;;13.87;;
9524;SDS011;15940;48.734;9.112;2024-03-08T02:21:06;23.10;;;15.10;;
9524;SDS011;15940;48.734;9.112;2024-03-08T02:23:33;20.63;;;13.00;;
9524;SDS011;15940;48.734;9.112;2024-03-08T02:26:00;24.87;;;15.43;;
9524;SDS011;15940;48.734;9.112;2024-03-08T02:28:29;24.37;;;15.00;;
9524;SDS011;15940;48.734;9.112;2024-03-08T02:30:57;23.73;;;14.80;;
9524;SDS011;15940;48.734;9.112;2024-03-08T02:33:24;21.90;;;13.97;;
9524;SDS011;15940;48.734;9.112;2024-03-08T02:35:53;21.40;;;13.67;;
9524;SDS011;15940;48.734;9.112;2024-03-08T02:38:22;21.43;;;14.13;;
9524;SDS011;15940;48.734;9.112;2024-03-08T02:40:50;19.97;;;13.50;;
9524;SDS011;15940;48.734;9.112;2024-03-08T02:43:19;22.77;;;14.10;;
9524;SDS011;15940;48.734;9.112;2024-03-08T02:45:49;20.13;;;13.20;;
9524;SDS011;15940;48.734;9.112;2024-03-08T02:48:18;20.17;;;13.17;;
9524;SDS011;15940;48.734;9.112;2024-03-08T02:50:46;20.37;;;13.17;;
9524;SDS011;15940;48.734;9.112;2024-03-08T02:53:13;22.47;;;13.27;;
9524;SDS011;15940;48.734;9.112;2024-03-08T02:55:41;21.43;;;13.30;;
9524;SDS011;15940;48.734;9.112;2024-03-08T02:58:09;21.43;;;13.77;;
9524;SDS011;15940;48.734;9.112;2024-03-08T03:00:36;21.20;;;13.67;;
9524;SDS011;15940;48.734;9.112;2024-03-08T03:03:05;19.13;;;13.00;;
9524;SDS011;15940;48.734;9.112;2024-03-08T03:05:32;19.50;;;12.60;;
9524;SDS011;15940;48.734;9.112;2024-03-08T03:07:59;23.30;;;13.53;;
9524;SDS011;15940;48.734;9.112;2024-03-08T03:10:28;21.13;;;12.93;;
9524;SDS011;15940;48.734;9.112;2024-03-08T03:12:57;23.93;;;12.93;;
9524;SDS011;15940;48.734;9.112;2024-03-08T03:15:24;21.17;;;12.73;;
9524;SDS011;15940;48.734;9.112;2024-03-08T03:17:51;20.77;;;13.90;;
9524;SDS011;15940;48.734;9.112;2024-03-08T03:20:18;19.70;;;13.63;;
9524;SDS011;15940;48.734;9.112;2024-03-08T03:22:51;21.53;;;13.90;;
9524;SDS011;15940;48.734;9.112;2024-03-08T03:25:18;19.53;;;13.33;;
9524;SDS011;15940;48.734;9.112;2024-03-08T03:27:50;20.07;;;13.20;;
9524;SDS011;15940;48.734;9.112;2024-03-08T03:30:22;21.80;;;14.03;;
9524;SDS011;15940;48.734;9.112;2024-03-08T03:32:51;21.00;;;13.17;;
9524;SDS011;15940;48.734;9.112;2024-03-08T03:35:19;21.20;;;12.80;;
9524;SDS011;15940;48.734;9.112;2024-03-08T03:37:47;21.17;;;13.23;;
9524;SDS011;15940;48.734;9.112;2024-03-08T03:40:26;23.33;;;14.43;;
9524;SDS011;15940;48.734;9.112;2024-03-08T03:42:53;22.00;;;13.07;;
9524;SDS011;15940;48.734;9.112;2024-03-08T03:45:20;23.77;;;14.83;;
9524;SDS011;15940;48.734;9.112;2024-03-08T03:47:49;21.63;;;13.40;;
9524;SDS011;15940;48.734;9.112;2024-03-08T03:50:16;22.60;;;13.77;;
9524;SDS011;15940;48.734;9.112;2024-03-08T03:52:44;22.73;;;14.07;;
9524;SDS011;15940;48.734;9.112;2024-03-08T03:55:11;23.00;;;14.13;;
9524;SDS011;15940;48.734;9.112;2024-03-08T03:57:39;21.23;;;12.47;;
9524;SDS011;15940;48.734;9.112;2024-03-08T04:00:07;21.83;;;13.53;;
9524;SDS011;15940;48.734;9.112;2024-03-08T04:02:37;22.17;;;13.27;;
9524;SDS011;15940;48.734;9.112;2024-03-08T04:05:04;22.07;;;13.77;;
9524;SDS011;15940;48.734;9.112;2024-03-08T04:07:33;21.87;;;14.37;;
9524;SDS011;15940;48.734;9.112;2024-03-08T04:10:00;21.57;;;14.10;;
9524;SDS011;15940;48.734;9.112;2024-03-08T04:12:27;20.33;;;13.47;;
9524;SDS011;15940;48.734;9.112;2024-03-08T04:14:56;23.90;;;14.07;;
9524;SDS011;15940;48.734;9.112;2024-03-08T04:17:23;21.27;;;14.13;;
9524;SDS011;15940;48.734;9.112;2024-03-08T04:19:51;20.87;;;13.80;;
9524;SDS011;15940;48.734;9.112;2024-03-08T04:22:19;22.37;;;14.07;;
9524;SDS011;15940;48.734;9.112;2024-03-08T04:24:46;24.63;;;14.53;;
9524;SDS011;15940;48.734;9.112;2024-03-08T04:27:14;25.50;;;14.90;;
9524;SDS011;15940;48.734;9.112;2024-03-08T04:29:41;21.73;;;13.90;;
9524;SDS011;15940;48.734;9.112;2024-03-08T04:32:09;22.63;;;14.20;;
9524;SDS011;15940;48.734;9.112;2024-03-08T04:34:38;23.10;;;13.63;;
9524;SDS011;15940;48.734;9.112;2024-03-08T04:37:06;23.40;;;14.17;;
9524;SDS011;15940;48.734;9.112;2024-03-08T04:39:35;24.53;;;14.73;;
9524;SDS011;15940;48.734;9.112;2024-03-08T04:42:02;24.67;;;14.87;;
9524;SDS011;15940;48.734;9.112;2024-03-08T04:44:31;22.67;;;13.97;;
9524;SDS011;15940;48.734;9.112;2024-03-08T04:46:59;23.00;;;15.10;;
9524;SDS011;15940;48.734;9.112;2024-03-08T04:49:26;23.50;;;14.83;;
9524;SDS011;15940;48.734;9.112;2024-03-08T04:51:54;23.43;;;15.03;;
9524;SDS011;15940;48.734;9.112;2024-03-08T04:54:22;22.97;;;14.23;;
9524;SDS011;15940;48.734;9.112;2024-03-08T04:56:49;20.67;;;13.60;;
9524;SDS011;15940;48.734;9.112;2024-03-08T04:59:16;22.37;;;14.50;;
9524;SDS011;15940;48.734;9.112;2024-03-08T05:01:43;24.33;;;14.80;;
9524;SDS011;15940;48.734;9.112;2024-03-08T05:04:10;21.03;;;13.67;;
9524;SDS011;15940;48.734;9.112;2024-03-08T05:06:36;23.83;;;15.10;;
9524;SDS011;15940;48.734;9.112;2024-03-08T05:09:03;21.30;;;14.27;;
9524;SDS011;15940;48.734;9.112;2024-03-08T05:11:39;22.27;;;14.30;;
9524;SDS011;15940;48.734;9.112;2024-03-08T05:14:07;23.93;;;14.87;;
9524;SDS011;15940;48.734;9.112;2024-03-08T05:16:34;23.17;;;14.47;;
9524;SDS011;15940;48.734;9.112;2024-03-08T05:19:01;22.77;;;13.43;;
9524;SDS011;15940;48.734;9.112;2024-03-08T05:21:29;24.00;;;15.60;;
9524;SDS011;15940;48.734;9.112;2024-03-08T05:23:56;23.13;;;15.27;;
9524;SDS011;15940;48.734;9.112;2024-03-08T05:26:22;21.80;;;14.33;;
9524;SDS011;15940;48.734;9.112;2024-03-08T05:28:51;23.40;;;14.30;;
9524;SDS011;15940;48.734;9.112;2024-03-08T05:31:18;26.73;;;15.40;;
9524;SDS011;15940;48.734;9.112;2024-03-08T05:33:48;22.40;;;15.07;;
9524;SDS011;15940;48.734;9.112;2024-03-08T05:36:15;24.60;;;14.90;;
9524;SDS011;15940;48.734;9.112;2024-03-08T05:38:42;23.30;;;15.57;;
9524;SDS011;15940;48.734;9.112;2024-03-08T05:41:09;24.63;;;15.43;;
9524;SDS011;15940;48.734;9.112;2024-03-08T05:43:36;25.07;;;15.10;;
9524;SDS011;15940;48.734;9.112;2024-03-08T05:46:05;24.13;;;15.70;;
9524;SDS011;15940;48.734;9.112;2024-03-08T05:48:32;23.03;;;14.70;;
9524;SDS011;15940;48.734;9.112;2024-03-08T05:50:59;23.50;;;14.53;;
9524;SDS011;15940;48.734;9.112;2024-03-08T05:53:26;23.00;;;15.47;;
9524;SDS011;15940;48.734;9.112;2024-03-08T05:55:56;24.10;;;15.70;;
9524;SDS011;15940;48.734;9.112;2024-03-08T05:58:23;22.50;;;14.80;;
9524;SDS011;15940;48.734;9.112;2024-03-08T06:00:50;25.07;;;15.17;;
9524;SDS011;15940;48.734;9.112;2024-03-08T06:03:18;21.17;;;14.20;;
9524;SDS011;15940;48.734;9.112;2024-03-08T06:05:46;22.00;;;15.10;;
9524;SDS011;15940;48.734;9.112;2024-03-08T06:08:14;23.90;;;15.30;;
9524;SDS011;15940;48.734;9.112;2024-03-08T06:10:41;23.53;;;15.23;;
9524;SDS011;15940;48.734;9.112;2024-03-08T06:13:08;23.30;;;15.03;;
9524;SDS011;15940;48.734;9.112;2024-03-08T06:15:37;21.97;;;14.60;;
9524;SDS011;15940;48.734;9.112;2024-03-08T06:18:04;24.70;;;14.73;;
9524;SDS011;15940;48.734;9.112;2024-03-08T06:20:34;24.30;;;15.63;;
9524;SDS011;15940;48.734;9.112;2024-03-08T06:23:01;21.13;;;13.57;;
9524;SDS011;15940;48.734;9.112;2024-03-08T06:25:28;23.17;;;14.17;;
9524;SDS011;15940;48.734;9.112;2024-03-08T06:27:55;22.17;;;14.53;;
9524;SDS011;15940;48.734;9.112;2024-03-08T06:30:21;20.90;;;14.33;;
9524;SDS011;15940;48.734;9.112;2024-03-08T06:32:48;24.40;;;14.30;;
9524;SDS011;15940;48.734;9.112;2024-03-08T06:35:15;22.03;;;14.43;;
9524;SDS011;15940;48.734;9.112;2024-03-08T06:37:44;20.53;;;14.00;;
9524;SDS011;15940;48.734;9.112;2024-03-08T06:40:11;23.80;;;14.27;;
9524;SDS011;15940;48.734;9.112;2024-03-08T06:42:39;23.63;;;15.40;;
9524;SDS011;15940;48.734;9.112;2024-03-08T06:45:07;24.57;;;15.03;;
9524;SDS011;15940;48.734;9.112;2024-03-08T06:47:35;22.47;;;13.90;;
9524;SDS011;15940;48.734;9.112;2024-03-08T06:50:02;24.47;;;15.40;;
9524;SDS011;15940;48.734;9.112;2024-03-08T06:52:30;22.83;;;15.03;;
9524;SDS011;15940;48.734;9.112;2024-03-08T06:54:59;24.43;;;15.13;;
9524;SDS011;15940;48.734;9.112;2024-03-08T06:57:26;25.97;;;16.27;;
9524;SDS011;15940;48.734;9.112;2024-03-08T06:59:54;21.40;;;14.40;;
9524;SDS011;15940;48.734;9.112;2024-03-08T07:02:22;22.83;;;14.90;;
9524;SDS011;15940;48.734;9.112;2024-03-08T07:04:50;22.47;;;15.60;;
9524;SDS011;15940;48.734;9.112;2024-03-08T07:07:18;21.50;;;14.37;;
9524;SDS011;15940;48.734;9.112;2024-03-08T07:09:46;22.93;;;14.60;;
9524;SDS011;15940;48.734;9.112;2024-03-08T07:12:15;23.07;;;14.97;;
9524;SDS011;15940;48.734;9.112;2024-03-08T07:14:43;22.27;;;14.37;;
9524;SDS011;15940;48.734;9.112;2024-03-08T07:17:10;21.67;;;14.43;;
9524;SDS011;15940;48.734;9.112;2024-03-08T07:19:37;21.97;;;14.93;;
9524;SDS011;15940;48.734;9.112;2024-03-08T07:22:04;23.20;;;15.87;;
9524;SDS011;15940;48.734;9.112;2024-03-08T07:24:34;23.83;;;15.13;;
9524;SDS011;15940;48.734;9.112;2024-03-08T07:27:22;25.00;;;15.40;;
9524;SDS011;15940;48.734;9.112;2024-03-08T07:29:49;19.47;;;13.63;;
9524;SDS011;15940;48.734;9.112;2024-03-08T07:32:16;21.90;;;14.67;;
9524;SDS011;15940;48.734;9.112;2024-03-08T07:34:46;18.87;;;13.67;;
9524;SDS011;15940;48.734;9.112;2024-03-08T07:37:15;21.83;;;14.57;;
9524;SDS011;15940;48.734;9.112;2024-03-08T07:39:42;20.90;;;14.60;;
9524;SDS011;15940;48.734;9.112;2024-03-08T07:42:09;21.53;;;14.73;;
9524;SDS011;15940;48.734;9.112;2024-03-08T07:44:38;19.70;;;14.17;;
9524;SDS011;15940;48.734;9.112;2024-03-08T07:47:05;21.10;;;14.87;;
9524;SDS011;15940;48.734;9.112;2024-03-08T07:49:34;25.10;;;14.20;;
9524;SDS011;15940;48.734;9.112;2024-03-08T07:52:02;22.40;;;15.20;;
9524;SDS011;15940;48.734;9.112;2024-03-08T07:54:32;22.30;;;14.53;;
9524;SDS011;15940;48.734;9.112;2024-03-08T07:56:59;23.83;;;14.53;;
9524;SDS011;15940;48.734;9.112;2024-03-08T07:59:27;21.97;;;14.80;;
9524;SDS011;15940;48.734;9.112;2024-03-08T08:01:56;20.07;;;14.10;;
9524;SDS011;15940;48.734;9.112;2024-03-08T08:04:24;21.43;;;14.20;;
9524;SDS011;15940;48.734;9.112;2024-03-08T08:06:52;21.17;;;14.67;;
9524;SDS011;15940;48.734;9.112;2024-03-08T08:09:20;20.67;;;14.70;;
9524;SDS011;15940;48.734;9.112;2024-03-08T08:11:53;26.90;;;15.63;;
9524;SDS011;15940;48.734;9.112;2024-03-08T08:14:20;19.27;;;13.67;;
9524;SDS011;15940;48.734;9.112;2024-03-08T08:16:47;21.63;;;14.90;;
9524;SDS011;15940;48.734;9.112;2024-03-08T08:19:19;23.40;;;15.10;;
9524;SDS011;15940;48.734;9.112;2024-03-08T08:21:45;21.40;;;14.87;;
9524;SDS011;15940;48.734;9.112;2024-03-08T08:24:12;19.00;;;12.90;;
9524;SDS011;15940;48.734;9.112;2024-03-08T08:26:39;24.27;;;15.00;;
9524;SDS011;15940;48.734;9.112;2024-03-08T08:29:06;20.50;;;14.60;;
9524;SDS011;15940;48.734;9.112;2024-03-08T08:31:33;21.33;;;14.33;;
9524;SDS011;15940;48.734;9.112;2024-03-08T08:34:01;20.90;;;14.10;;
9524;SDS011;15940;48.734;9.112;2024-03-08T08:36:29;21.33;;;13.20;;
9524;SDS011;15940;48.734;9.112;2024-03-08T08:38:56;19.47;;;13.27;;
9524;SDS011;15940;48.734;9.112;2024-03-08T08:41:24;21.40;;;13.60;;
9524;SDS011;15940;48.734;9.112;2024-03-08T08:43:52;19.43;;;13.07;;
9524;SDS011;15940;48.734;9.112;2024-03-08T08:46:19;19.27;;;14.20;;
9524;SDS011;15940;48.734;9.112;2024-03-08T08:48:46;20.70;;;14.57;;
9524;SDS011;15940;48.734;9.112;2024-03-08T08:51:13;20.40;;;13.60;;
9524;SDS011;15940;48.734;9.112;2024-03-08T08:53:42;18.13;;;13.33;;
9524;SDS011;15940;48.734;9.112;2024-03-08T08:56:10;18.83;;;13.07;;
9524;SDS011;15940;48.734;9.112;2024-03-08T08:58:38;19.23;;;14.17;;
9524;SDS011;15940;48.734;9.112;2024-03-08T09:01:06;18.77;;;13.80;;
9524;SDS011;15940;48.734;9.112;2024-03-08T09:03:35;22.00;;;13.80;;
9524;SDS011;15940;48.734;9.112;2024-03-08T09:06:02;17.47;;;12.70;;
9524;SDS011;15940;48.734;9.112;2024-03-08T09:08:30;21.83;;;12.97;;
9524;SDS011;15940;48.734;9.112;2024-03-08T09:10:58;19.57;;;13.13;;
9524;SDS011;15940;48.734;9.112;2024-03-08T09:13:25;17.63;;;12.70;;
9524;SDS011;15940;48.734;9.112;2024-03-08T09:15:52;18.43;;;13.53;;
9524;SDS011;15940;48.734;9.112;2024-03-08T09:18:19;17.87;;;13.13;;
9524;SDS011;15940;48.734;9.112;2024-03-08T09:20:46;17.20;;;12.33;;
9524;SDS011;15940;48.734;9.112;2024-03-08T09:23:13;18.27;;;12.67;;
9524;SDS011;15940;48.734;9.112;2024-03-08T09:25:42;18.33;;;13.47;;
9524;SDS011;15940;48.734;9.112;2024-03-08T09:28:10;20.97;;;12.90;;
9524;SDS011;15940;48.734;9.112;2024-03-08T09:30:37;19.03;;;13.27;;
9524;SDS011;15940;48.734;9.112;2024-03-08T09:33:04;17.40;;;12.90;;
9524;SDS011;15940;48.734;9.112;2024-03-08T09:35:32;17.03;;;12.30;;
9524;SDS011;15940;48.734;9.112;2024-03-08T09:37:59;18.10;;;12.60;;
9524;SDS011;15940;48.734;9.112;2024-03-08T09:40:26;17.03;;;12.33;;
9524;SDS011;15940;48.734;9.112;2024-03-08T09:42:53;15.70;;;12.23;;
9524;SDS011;15940;48.734;9.112;2024-03-08T09:45:21;18.47;;;12.27;;
9524;SDS011;15940;48.734;9.112;2024-03-08T09:47:50;17.33;;;12.80;;
9524;SDS011;15940;48.734;9.112;2024-03-08T09:50:18;18.03;;;13.60;;
9524;SDS011;15940;48.734;9.112;2024-03-08T09:52:46;20.03;;;13.40;;
9524;SDS011;15940;48.734;9.112;2024-03-08T09:55:15;17.20;;;12.50;;
9524;SDS011;15940;48.734;9.112;2024-03-08T09:57:47;19.50;;;13.27;;
9524;SDS011;15940;48.734;9.112;2024-03-08T10:00:30;16.27;;;11.73;;
9524;SDS011;15940;48.734;9.112;2024-03-08T10:03:00;18.10;;;12.63;;
9524;SDS011;15940;48.734;9.112;2024-03-08T10:05:27;16.20;;;11.53;;
9524;SDS011;15940;48.734;9.112;2024-03-08T10:07:54;17.90;;;12.87;;
9524;SDS011;15940;48.734;9.112;2024-03-08T10:10:21;17.23;;;12.50;;
9524;SDS011;15940;48.734;9.112;2024-03-08T10:12:48;18.60;;;12.20;;
9524;SDS011;15940;48.734;9.112;2024-03-08T10:15:15;18.23;;;13.20;;
9524;SDS011;15940;48.734;9.112;2024-03-08T10:17:44;19.70;;;12.90;;
9524;SDS011;15940;48.734;9.112;2024-03-08T10:20:14;17.87;;;13.03;;
9524;SDS011;15940;48.734;9.112;2024-03-08T10:22:42;17.17;;;12.87;;
9524;SDS011;15940;48.734;9.112;2024-03-08T10:25:09;17.83;;;13.07;;
9524;SDS011;15940;48.734;9.112;2024-03-08T10:27:36;17.60;;;12.50;;
9524;SDS011;15940;48.734;9.112;2024-03-08T10:30:06;16.70;;;12.20;;
9524;SDS011;15940;48.734;9.112;2024-03-08T10:32:38;16.87;;;12.93;;
9524;SDS011;15940;48.734;9.112;2024-03-08T10:35:08;16.90;;;12.43;;
9524;SDS011;15940;48.734;9.112;2024-03-08T10:37:40;17.50;;;12.50;;
9524;SDS011;15940;48.734;9.112;2024-03-08T10:40:13;17.73;;;12.53;;
9524;SDS011;15940;48.734;9.112;2024-03-08T10:42:47;16.67;;;12.00;;
9524;SDS011;15940;48.734;9.112;2024-03-08T10:45:21;17.37;;;12.43;;
9524;SDS011;15940;48.734;9.112;2024-03-08T10:47:59;16.03;;;12.50;;
9524;SDS011;15940;48.734;9.112;2024-03-08T10:50:37;16.53;;;12.87;;
9524;SDS011;15940;48.734;9.112;2024-03-08T10:53:04;17.73;;;12.07;;
9524;SDS011;15940;48.734;9.112;2024-03-08T10:55:33;18.60;;;12.43;;
9524;SDS011;15940;48.734;9.112;2024-03-08T10:58:06;14.87;;;10.93;;
9524;SDS011;15940;48.734;9.112;2024-03-08T11:00:34;18.67;;;12.17;;
9524;SDS011;15940;48.734;9.112;2024-03-08T11:03:02;15.83;;;12.50;;
9524;SDS011;15940;48.734;9.112;2024-03-08T11:05:31;16.83;;;12.07;;
9524;SDS011;15940;48.734;9.112;2024-03-08T11:08:05;16.40;;;12.47;;
9524;SDS011;15940;48.734;9.112;2024-03-08T11:10:46;15.97;;;11.80;;
9524;SDS011;15940;48.734;9.112;2024-03-08T11:16:01;15.67;;;11.70;;
9524;SDS011;15940;48.734;9.112;2024-03-08T11:18:34;15.07;;;11.33;;
9524;SDS011;15940;48.734;9.112;2024-03-08T11:21:02;16.70;;;12.67;;
9524;SDS011;15940;48.734;9.112;2024-03-08T11:23:33;16.43;;;11.83;;
9524;SDS011;15940;48.734;9.112;2024-03-08T11:26:00;16.47;;;11.77;;
9524;SDS011;15940;48.734;9.112;2024-03-08T11:28:32;14.60;;;11.40;;
9524;SDS011;15940;48.734;9.112;2024-03-08T11:33:49;13.90;;;10.70;;
9524;SDS011;15940;48.734;9.112;2024-03-08T11:36:20;17.90;;;12.57;;
9524;SDS011;15940;48.734;9.112;2024-03-08T11:38:50;17.13;;;11.50;;
9524;SDS011;15940;48.734;9.112;2024-03-08T11:41:19;15.60;;;11.43;;
9524;SDS011;15940;48.734;9.112;2024-03-08T11:43:48;14.47;;;11.00;;
9524;SDS011;15940;48.734;9.112;2024-03-08T11:46:30;14.43;;;11.27;;
9524;SDS011;15940;48.734;9.112;2024-03-08T11:48:57;16.50;;;12.10;;
9524;SDS011;15940;48.734;9.112;2024-03-08T11:51:25;14.30;;;11.67;;
9524;SDS011;15940;48.734;9.112;2024-03-08T11:53:54;13.23;;;11.07;;
9524;SDS011;15940;48.734;9.112;2024-03-08T11:56:21;18.67;;;11.47;;
9524;SDS011;15940;48.734;9.112;2024-03-08T11:58:52;14.37;;;11.43;;
9524;SDS011;15940;48.734;9.112;2024-03-08T12:01:22;15.30;;;11.63;;
9524;SDS011;15940;48.734;9.112;2024-03-08T12:03:52;13.73;;;11.00;;
9524;SDS011;15940;48.734;9.112;2024-03-08T12:06:20;16.53;;;12.40;;
9524;SDS011;15940;48.734;9.112;2024-03-08T12:08:47;15.60;;;11.97;;
9524;SDS011;15940;48.734;9.112;2024-03-08T12:11:17;16.50;;;11.93;;
9524;SDS011;15940;48.734;9.112;2024-03-08T12:13:48;16.20;;;11.70;;
9524;SDS011;15940;48.734;9.112;2024-03-08T12:16:16;16.27;;;11.80;;
9524;SDS011;15940;48.734;9.112;2024-03-08T12:18:44;16.83;;;12.40;;
9524;SDS011;15940;48.734;9.112;2024-03-08T12:21:12;15.50;;;12.00;;
9524;SDS011;15940;48.734;9.112;2024-03-08T12:23:42;18.47;;;12.53;;
9524;SDS011;15940;48.734;9.112;2024-03-08T12:26:11;14.43;;;11.23;;
9524;SDS011;15940;48.734;9.112;2024-03-08T12:28:40;16.40;;;12.07;;
9524;SDS011;15940;48.734;9.112;2024-03-08T12:31:11;15.80;;;11.80;;
9524;SDS011;15940;48.734;9.112;2024-03-08T12:33:46;15.67;;;11.83;;
9524;SDS011;15940;48.734;9.112;2024-03-08T12:36:15;16.40;;;11.90;;
9524;SDS011;15940;48.734;9.112;2024-03-08T12:38:43;14.80;;;11.13;;
9524;SDS011;15940;48.734;9.112;2024-03-08T12:41:12;16.33;;;12.60;;
9524;SDS011;15940;48.734;9.112;2024-03-08T12:43:41;15.93;;;12.37;;
9524;SDS011;15940;48.734;9.112;2024-03-08T12:46:12;13.67;;;10.43;;
9524;SDS011;15940;48.734;9.112;2024-03-08T12:48:39;17.47;;;12.40;;
9524;SDS011;15940;48.734;9.112;2024-03-08T12:51:06;15.07;;;11.63;;
9524;SDS011;15940;48.734;9.112;2024-03-08T12:53:34;16.13;;;11.83;;
9524;SDS011;15940;48.734;9.112;2024-03-08T12:56:00;16.10;;;12.23;;
9524;SDS011;15940;48.734;9.112;2024-03-08T12:58:32;17.53;;;12.60;;
9524;SDS011;15940;48.734;9.112;2024-03-08T13:01:00;18.77;;;13.07;;
9524;SDS011;15940;48.734;9.112;2024-03-08T13:03:29;18.23;;;13.23;;
9524;SDS011;15940;48.734;9.112;2024-03-08T13:05:56;16.97;;;12.50;;
9524;SDS011;15940;48.734;9.112;2024-03-08T13:08:23;16.40;;;12.50;;
9524;SDS011;15940;48.734;9.112;2024-03-08T13:10:52;18.57;;;13.17;;
9524;SDS011;15940;48.734;9.112;2024-03-08T13:13:19;16.23;;;13.03;;
9524;SDS011;15940;48.734;9.112;2024-03-08T13:15:47;18.73;;;13.53;;
9524;SDS011;15940;48.734;9.112;2024-03-08T13:18:16;16.93;;;12.50;;
9524;SDS011;15940;48.734;9.112;2024-03-08T13:20:43;17.70;;;13.33;;
9524;SDS011;15940;48.734;9.112;2024-03-08T13:23:14;16.67;;;12.50;;
9524;SDS011;15940;48.734;9.112;2024-03-08T13:25:42;19.80;;;13.40;;
9524;SDS011;15940;48.734;9.112;2024-03-08T13:28:10;16.87;;;12.60;;
9524;SDS011;15940;48.734;9.112;2024-03-08T13:30:37;17.97;;;13.07;;
9524;SDS011;15940;48.734;9.112;2024-03-08T13:33:04;18.50;;;13.53;;
9524;SDS011;15940;48.734;9.112;2024-03-08T13:35:33;21.90;;;13.03;;
9524;SDS011;15940;48.734;9.112;2024-03-08T13:38:00;19.73;;;12.93;;
9524;SDS011;15940;48.734;9.112;2024-03-08T13:40:29;16.63;;;12.57;;
9524;SDS011;15940;48.734;9.112;2024-03-08T13:42:56;19.13;;;13.67;;
9524;SDS011;15940;48.734;9.112;2024-03-08T13:45:25;16.70;;;12.70;;
9524;SDS011;15940;48.734;9.112;2024-03-08T13:47:53;14.37;;;11.33;;
9524;SDS011;15940;48.734;9.112;2024-03-08T13:50:20;16.60;;;12.53;;
9524;SDS011;15940;48.734;9.112;2024-03-08T13:52:50;14.70;;;11.67;;
9524;SDS011;15940;48.734;9.112;2024-03-08T13:55:18;16.50;;;12.73;;
9524;SDS011;15940;48.734;9.112;2024-03-08T13:57:47;15.57;;;12.63;;
9524;SDS011;15940;48.734;9.112;2024-03-08T14:00:16;19.50;;;13.20;;
9524;SDS011;15940;48.734;9.112;2024-03-08T14:02:47;17.47;;;12.80;;
9524;SDS011;15940;48.734;9.112;2024-03-08T14:05:14;18.03;;;12.63;;
9524;SDS011;15940;48.734;9.112;2024-03-08T14:07:42;15.23;;;11.53;;
9524;SDS011;15940;48.734;9.112;2024-03-08T14:10:12;18.47;;;12.90;;
9524;SDS011;15940;48.734;9.112;2024-03-08T14:12:39;17.23;;;12.87;;
9524;SDS011;15940;48.734;9.112;2024-03-08T14:15:08;17.63;;;12.60;;
9524;SDS011;15940;48.734;9.112;2024-03-08T14:17:37;15.57;;;11.73;;
9524;SDS011;15940;48.734;9.112;2024-03-08T14:20:05;17.00;;;12.37;;
9524;SDS011;15940;48.734;9.112;2024-03-08T14:22:34;18.47;;;13.00;;
9524;SDS011;15940;48.734;9.112;2024-03-08T14:25:01;18.80;;;13.00;;
9524;SDS011;15940;48.734;9.112;2024-03-08T14:27:31;17.77;;;13.63;;
9524;SDS011;15940;48.734;9.112;2024-03-08T14:29:59;18.40;;;13.10;;
9524;SDS011;15940;48.734;9.112;2024-03-08T14:32:25;15.90;;;11.93;;
9524;SDS011;15940;48.734;9.112;2024-03-08T14:34:53;17.63;;;13.40;;
9524;SDS011;15940;48.734;9.112;2024-03-08T14:37:21;21.60;;;13.90;;
9524;SDS011;15940;48.734;9.112;2024-03-08T14:39:53;17.30;;;13.13;;
9524;SDS011;15940;48.734;9.112;2024-03-08T14:42:21;18.33;;;12.93;;
9524;SDS011;15940;48.734;9.112;2024-03-08T14:44:50;15.43;;;12.33;;